createdAt,value
2018-11-11T00:00:39.817Z,32.60
2018-11-11T00:03:12.467Z,33.00
2018-11-11T00:05:45.349Z,32.30
2018-11-11T00:08:18.132Z,32.93
2018-11-11T00:10:51.734Z,33.53
2018-11-11T00:13:24.415Z,32.67
2018-11-11T00:15:57.202Z,30.63
2018-11-11T00:18:29.837Z,32.03
2018-11-11T00:21:02.666Z,31.50
2018-11-11T00:23:35.267Z,32.20
2018-11-11T00:26:07.922Z,30.57
2018-11-11T00:28:41.458Z,32.00
2018-11-11T00:31:14.127Z,33.77
2018-11-11T00:33:46.665Z,32.63
2018-11-11T00:36:19.380Z,33.57
2018-11-11T00:38:52.269Z,31.83
2018-11-11T00:41:27.304Z,31.47
2018-11-11T00:44:00.490Z,32.20
2018-11-11T00:46:33.359Z,34.47
2018-11-11T00:49:06.133Z,33.17
2018-11-11T00:51:38.832Z,34.50
2018-11-11T00:54:11.387Z,31.57
2018-11-11T00:56:43.968Z,33.10
2018-11-11T00:59:16.510Z,33.00
2018-11-11T01:01:49.218Z,33.43
2018-11-11T01:04:21.641Z,33.63
2018-11-11T01:06:54.134Z,30.97
2018-11-11T01:09:26.814Z,33.40
2018-11-11T01:11:59.384Z,32.50
2018-11-11T01:14:31.878Z,33.23
2018-11-11T01:17:05.185Z,30.83
2018-11-11T01:19:37.634Z,32.80
2018-11-11T01:22:10.799Z,31.67
2018-11-11T01:24:43.319Z,33.03
2018-11-11T01:27:16.731Z,33.20
2018-11-11T01:29:49.179Z,32.67
2018-11-11T01:32:21.883Z,31.50
2018-11-11T01:34:54.316Z,32.63
2018-11-11T01:37:26.773Z,32.90
2018-11-11T01:39:59.166Z,33.20
2018-11-11T01:42:31.640Z,32.87
2018-11-11T01:45:04.898Z,31.93
2018-11-11T01:47:37.541Z,33.27
2018-11-11T01:50:11.182Z,32.97
2018-11-11T01:52:43.738Z,33.40
2018-11-11T01:55:16.161Z,33.43
2018-11-11T01:57:48.654Z,33.17
2018-11-11T02:00:21.114Z,32.50
2018-11-11T02:02:53.815Z,34.40
2018-11-11T02:05:26.323Z,34.27
2018-11-11T02:07:58.787Z,32.37
2018-11-11T02:10:31.270Z,34.37
2018-11-11T02:13:03.877Z,33.87
2018-11-11T02:15:36.397Z,34.07
2018-11-11T02:18:08.830Z,32.47
2018-11-11T02:20:41.208Z,32.30
2018-11-11T02:23:13.674Z,34.10
2018-11-11T02:25:46.041Z,32.77
2018-11-11T02:28:18.963Z,32.97
2018-11-11T02:30:51.519Z,33.13
2018-11-11T02:33:23.985Z,33.83
2018-11-11T02:35:56.654Z,31.97
2018-11-11T02:38:29.105Z,33.67
2018-11-11T02:41:01.823Z,32.60
2018-11-11T02:43:34.270Z,33.83
2018-11-11T02:46:06.838Z,32.90
2018-11-11T02:48:39.205Z,32.50
2018-11-11T02:51:11.911Z,34.20
2018-11-11T02:53:44.372Z,32.03
2018-11-11T02:56:16.929Z,33.70
2018-11-11T02:58:50.517Z,31.87
2018-11-11T03:01:23.713Z,32.27
2018-11-11T03:03:56.336Z,32.80
2018-11-11T03:06:28.838Z,32.03
2018-11-11T03:09:01.289Z,33.13
2018-11-11T03:11:34.543Z,33.07
2018-11-11T03:14:07.117Z,31.97
2018-11-11T03:16:39.620Z,33.90
2018-11-11T03:19:12.131Z,31.23
2018-11-11T03:21:44.584Z,32.20
2018-11-11T03:24:17.017Z,31.77
2018-11-11T03:26:49.424Z,34.03
2018-11-11T03:29:21.863Z,32.23
2018-11-11T03:31:55.048Z,32.00
2018-11-11T03:34:27.512Z,32.90
2018-11-11T03:37:00.226Z,30.53
2018-11-11T03:39:32.634Z,31.47
2018-11-11T03:42:05.272Z,32.60
2018-11-11T03:44:37.683Z,31.07
2018-11-11T03:47:10.297Z,32.83
2018-11-11T03:49:43.751Z,32.43
2018-11-11T03:52:16.292Z,33.67
2018-11-11T03:54:48.671Z,32.90
2018-11-11T03:57:21.233Z,32.47
2018-11-11T03:59:53.647Z,33.03
2018-11-11T04:02:26.084Z,31.83
2018-11-11T04:04:58.466Z,32.63
2018-11-11T04:07:30.870Z,30.87
2018-11-11T04:10:04.499Z,31.63
2018-11-11T04:12:37.421Z,32.20
2018-11-11T04:15:12.183Z,31.20
2018-11-11T04:17:45.152Z,31.07
2018-11-11T04:20:18.977Z,32.93
2018-11-11T04:22:51.427Z,30.43
2018-11-11T04:25:23.798Z,31.43
2018-11-11T04:27:56.308Z,30.93
2018-11-11T04:30:28.702Z,32.63
2018-11-11T04:33:01.115Z,31.00
2018-11-11T04:35:33.513Z,31.83
2018-11-11T04:38:05.962Z,31.23
2018-11-11T04:40:38.362Z,32.23
2018-11-11T04:43:10.799Z,30.37
2018-11-11T04:45:43.235Z,30.70
2018-11-11T04:48:15.651Z,31.63
2018-11-11T04:50:48.059Z,30.40
2018-11-11T04:53:20.469Z,30.47
2018-11-11T04:55:53.006Z,31.00
2018-11-11T04:58:25.501Z,30.27
2018-11-11T05:00:58.000Z,30.90
2018-11-11T05:03:30.500Z,30.00
2018-11-11T05:06:04.554Z,30.77
2018-11-11T05:08:36.976Z,29.03
2018-11-11T05:11:09.382Z,29.80
2018-11-11T05:13:41.845Z,31.70
2018-11-11T05:16:14.345Z,29.60
2018-11-11T05:18:46.851Z,32.20
2018-11-11T05:21:19.250Z,29.97
2018-11-11T05:23:51.675Z,30.77
2018-11-11T05:26:24.099Z,31.40
2018-11-11T05:28:56.486Z,31.17
2018-11-11T05:31:28.883Z,29.67
2018-11-11T05:34:01.746Z,29.83
2018-11-11T05:36:34.125Z,30.10
2018-11-11T05:39:08.922Z,30.03
2018-11-11T05:41:41.623Z,29.40
2018-11-11T05:44:14.339Z,30.13
2018-11-11T05:46:46.783Z,30.13
2018-11-11T05:49:19.205Z,30.33
2018-11-11T05:51:52.069Z,30.27
2018-11-11T05:54:24.937Z,29.20
2018-11-11T05:56:57.633Z,28.57
2018-11-11T05:59:30.330Z,29.33
2018-11-11T06:02:02.724Z,28.23
2018-11-11T06:04:35.153Z,29.47
2018-11-11T06:07:08.131Z,29.13
2018-11-11T06:09:40.580Z,32.07
2018-11-11T06:12:13.098Z,30.17
2018-11-11T06:14:45.670Z,28.33
2018-11-11T06:17:18.440Z,28.60
2018-11-11T06:19:52.068Z,28.23
2018-11-11T06:22:25.493Z,28.53
2018-11-11T06:24:57.985Z,28.73
2018-11-11T06:27:30.514Z,29.27
2018-11-11T06:30:03.425Z,28.73
2018-11-11T06:32:36.060Z,30.13
2018-11-11T06:35:08.727Z,28.80
2018-11-11T06:37:41.461Z,29.03
2018-11-11T06:40:14.052Z,29.73
2018-11-11T06:42:47.375Z,28.83
2018-11-11T06:45:19.999Z,28.03
2018-11-11T06:47:52.647Z,27.47
2018-11-11T06:50:25.223Z,29.43
2018-11-11T06:52:57.766Z,27.83
2018-11-11T06:55:30.197Z,29.73
2018-11-11T06:58:02.866Z,28.67
2018-11-11T07:00:38.277Z,29.27
2018-11-11T07:03:22.168Z,28.40
2018-11-11T07:05:54.676Z,28.27
2018-11-11T07:08:27.207Z,29.10
2018-11-11T07:11:00.036Z,28.87
2018-11-11T07:13:33.104Z,29.57
2018-11-11T07:16:20.537Z,28.70
2018-11-11T07:18:53.449Z,27.70
2018-11-11T07:21:25.918Z,28.90
2018-11-11T07:23:58.636Z,29.40
2018-11-11T07:26:32.747Z,29.47
2018-11-11T07:29:05.416Z,28.67
2018-11-11T07:31:37.838Z,28.33
2018-11-11T07:34:10.271Z,28.23
2018-11-11T07:36:42.709Z,28.13
2018-11-11T07:39:15.155Z,27.90
2018-11-11T07:41:47.607Z,29.80
2018-11-11T07:44:20.065Z,29.67
2018-11-11T07:46:52.611Z,29.10
2018-11-11T07:49:25.063Z,28.63
2018-11-11T07:51:57.575Z,29.03
2018-11-11T07:54:31.133Z,28.97
2018-11-11T07:57:04.012Z,29.37
2018-11-11T07:59:36.940Z,30.20
2018-11-11T08:02:10.535Z,29.03
2018-11-11T08:04:42.919Z,28.83
2018-11-11T08:07:15.526Z,27.57
2018-11-11T08:09:48.379Z,29.00
2018-11-11T08:12:21.305Z,29.93
2018-11-11T08:14:53.796Z,29.47
2018-11-11T08:17:26.243Z,30.37
2018-11-11T08:19:58.806Z,28.60
2018-11-11T08:22:31.345Z,28.40
2018-11-11T08:25:04.221Z,28.07
2018-11-11T08:27:36.742Z,29.37
2018-11-11T08:30:09.848Z,27.90
2018-11-11T08:32:42.268Z,29.47
2018-11-11T08:35:14.699Z,30.77
2018-11-11T08:37:47.207Z,30.77
2018-11-11T08:40:19.957Z,30.13
2018-11-11T08:42:52.564Z,30.00
2018-11-11T08:45:27.917Z,29.40
2018-11-11T08:48:00.486Z,29.20
2018-11-11T08:50:32.956Z,29.53
2018-11-11T08:53:05.892Z,30.03
2018-11-11T08:55:38.357Z,28.13
2018-11-11T08:58:10.927Z,28.23
2018-11-11T09:00:43.434Z,30.57
2018-11-11T09:03:16.009Z,31.17
2018-11-11T09:05:48.451Z,28.87
2018-11-11T09:08:21.062Z,30.00
2018-11-11T09:10:53.570Z,28.73
2018-11-11T09:13:26.036Z,29.03
2018-11-11T09:15:58.556Z,29.20
2018-11-11T09:18:31.115Z,28.90
2018-11-11T09:21:03.609Z,27.63
2018-11-11T09:23:36.992Z,29.27
2018-11-11T09:26:09.585Z,29.10
2018-11-11T09:28:42.095Z,29.17
2018-11-11T09:31:14.604Z,27.80
2018-11-11T09:33:47.061Z,27.80
2018-11-11T09:36:19.847Z,28.47
2018-11-11T09:38:53.722Z,28.60
2018-11-11T09:41:26.341Z,27.30
2018-11-11T09:43:58.866Z,29.17
2018-11-11T09:46:31.367Z,29.30
2018-11-11T09:49:04.021Z,26.80
2018-11-11T09:51:37.506Z,27.37
2018-11-11T09:54:10.165Z,29.13
2018-11-11T09:56:42.672Z,27.47
2018-11-11T09:59:15.374Z,27.17
2018-11-11T10:01:48.197Z,27.83
2018-11-11T10:04:28.199Z,27.43
2018-11-11T10:09:08.685Z,26.13
2018-11-11T10:11:46.283Z,27.90
2018-11-11T10:16:25.943Z,28.07
2018-11-11T10:19:06.139Z,26.70
2018-11-11T10:21:49.413Z,28.77
2018-11-11T10:24:27.734Z,27.27
2018-11-11T10:27:06.673Z,26.57
2018-11-11T10:29:47.921Z,26.07
2018-11-11T10:32:40.330Z,24.87
2018-11-11T10:35:48.295Z,26.53
2018-11-11T10:38:26.059Z,26.67
2018-11-11T10:41:02.019Z,26.20
2018-11-11T10:43:39.578Z,25.63
2018-11-11T10:46:51.014Z,26.57
2018-11-11T10:49:27.409Z,25.73
2018-11-11T10:52:00.077Z,24.33
2018-11-11T10:54:32.609Z,24.53
2018-11-11T10:57:05.449Z,25.57
2018-11-11T10:59:38.316Z,25.57
2018-11-11T11:02:16.552Z,25.73
2018-11-11T11:04:55.090Z,24.63
2018-11-11T11:07:27.512Z,27.67
2018-11-11T11:10:00.099Z,27.43
2018-11-11T11:12:32.634Z,26.20
2018-11-11T11:15:06.696Z,26.20
2018-11-11T11:17:39.436Z,26.10
2018-11-11T11:20:11.932Z,24.97
2018-11-11T11:22:44.383Z,25.60
2018-11-11T11:25:16.845Z,25.50
2018-11-11T11:27:49.363Z,23.80
2018-11-11T11:30:21.863Z,26.33
2018-11-11T11:32:54.301Z,25.80
2018-11-11T11:35:26.859Z,24.30
2018-11-11T11:37:59.394Z,25.83
2018-11-11T11:40:31.866Z,26.07
2018-11-11T11:43:04.386Z,24.53
2018-11-11T11:45:36.979Z,25.63
2018-11-11T11:48:09.543Z,24.50
2018-11-11T11:50:42.112Z,24.67
2018-11-11T11:53:14.651Z,24.60
2018-11-11T11:55:47.329Z,23.80
2018-11-11T11:58:21.337Z,23.23
2018-11-11T12:00:54.134Z,25.30
2018-11-11T12:03:26.645Z,25.73
2018-11-11T12:05:59.277Z,23.97
2018-11-11T12:08:31.989Z,28.53
2018-11-11T12:11:04.818Z,28.80
2018-11-11T12:13:37.268Z,29.63
2018-11-11T12:16:09.993Z,29.63
2018-11-11T12:18:42.447Z,27.40
2018-11-11T12:21:14.979Z,24.97
2018-11-11T12:23:47.424Z,26.37
2018-11-11T12:26:20.070Z,25.87
2018-11-11T12:28:52.932Z,27.13
2018-11-11T12:31:26.161Z,25.17
2018-11-11T12:33:58.689Z,26.27
2018-11-11T12:36:31.568Z,25.03
2018-11-11T12:39:07.663Z,25.90
2018-11-11T12:41:40.342Z,26.10
2018-11-11T12:44:12.859Z,24.43
2018-11-11T12:46:45.448Z,26.63
2018-11-11T12:49:18.032Z,27.60
2018-11-11T12:51:51.156Z,25.83
2018-11-11T12:54:23.655Z,26.27
2018-11-11T12:56:56.983Z,24.37
2018-11-11T12:59:29.454Z,24.03
2018-11-11T13:02:01.971Z,25.53
2018-11-11T13:04:34.698Z,24.83
2018-11-11T13:07:07.343Z,24.97
2018-11-11T13:09:40.101Z,24.53
2018-11-11T13:12:12.883Z,25.23
2018-11-11T13:14:45.304Z,25.07
2018-11-11T13:17:17.759Z,23.27
2018-11-11T13:19:50.811Z,24.87
2018-11-11T13:22:23.372Z,24.10
2018-11-11T13:24:55.891Z,24.43
2018-11-11T13:27:28.417Z,23.97
2018-11-11T13:30:00.856Z,24.10
2018-11-11T13:32:33.462Z,24.17
2018-11-11T13:35:07.375Z,24.57
2018-11-11T13:37:41.009Z,24.13
2018-11-11T13:40:15.242Z,24.77
2018-11-11T13:42:47.877Z,25.63
2018-11-11T13:45:21.569Z,26.70
2018-11-11T13:47:54.170Z,25.70
2018-11-11T13:50:26.960Z,25.20
2018-11-11T13:52:59.482Z,24.83
2018-11-11T13:55:32.054Z,23.80
2018-11-11T13:58:04.868Z,24.70
2018-11-11T14:00:37.334Z,25.13
2018-11-11T14:03:09.786Z,24.73
2018-11-11T14:05:42.288Z,24.60
2018-11-11T14:08:15.218Z,23.67
2018-11-11T14:10:47.726Z,24.40
2018-11-11T14:13:20.235Z,23.70
2018-11-11T14:15:52.956Z,24.60
2018-11-11T14:18:25.568Z,23.53
2018-11-11T14:20:57.965Z,24.50
2018-11-11T14:23:30.861Z,24.07
2018-11-11T14:26:03.516Z,24.60
2018-11-11T14:28:36.126Z,23.63
2018-11-11T14:31:08.922Z,22.60
2018-11-11T14:33:41.493Z,22.67
2018-11-11T14:36:14.039Z,22.83
2018-11-11T14:38:46.580Z,21.83
2018-11-11T14:41:19.194Z,21.17
2018-11-11T14:43:51.669Z,21.27
2018-11-11T14:46:24.223Z,21.17
2018-11-11T14:48:56.721Z,22.27
2018-11-11T14:51:29.399Z,22.23
2018-11-11T14:54:02.181Z,22.23
2018-11-11T14:56:34.963Z,21.97
2018-11-11T14:59:07.512Z,20.73
2018-11-11T15:01:40.119Z,20.73
2018-11-11T15:04:12.777Z,20.83
2018-11-11T15:06:45.376Z,19.67
2018-11-11T15:09:18.107Z,20.70
2018-11-11T15:11:50.642Z,21.63
2018-11-11T15:14:23.330Z,21.17
2018-11-11T15:16:56.054Z,28.43
2018-11-11T15:19:28.738Z,23.17
2018-11-11T15:22:01.064Z,24.83
2018-11-11T15:25:36.546Z,20.70
2018-11-11T15:28:09.111Z,20.40
2018-11-11T15:30:41.957Z,20.33
2018-11-11T15:33:16.473Z,20.77
2018-11-11T15:35:49.413Z,19.53
2018-11-11T15:38:22.188Z,21.33
2018-11-11T15:40:54.893Z,21.40
2018-11-11T15:43:27.829Z,19.90
2018-11-11T15:46:00.394Z,19.97
2018-11-11T15:48:33.273Z,18.73
2018-11-11T15:51:05.885Z,20.33
2018-11-11T15:53:38.853Z,20.50
2018-11-11T15:56:11.303Z,18.97
2018-11-11T15:58:44.032Z,17.33
2018-11-11T16:01:16.793Z,17.87
2018-11-11T16:03:49.387Z,17.03
2018-11-11T16:06:22.012Z,17.30
2018-11-11T16:08:54.827Z,17.67
2018-11-11T16:11:27.386Z,17.23
2018-11-11T16:14:00.272Z,16.50
2018-11-11T16:16:32.845Z,16.03
2018-11-11T16:19:05.472Z,17.20
2018-11-11T16:21:37.950Z,18.83
2018-11-11T16:24:10.465Z,18.10
2018-11-11T16:26:43.051Z,18.17
2018-11-11T16:29:17.081Z,16.80
2018-11-11T16:31:49.598Z,18.83
2018-11-11T16:34:22.676Z,18.67
2018-11-11T16:36:55.188Z,18.47
2018-11-11T16:39:27.729Z,20.23
2018-11-11T16:42:00.315Z,20.57
2018-11-11T16:44:33.887Z,20.63
2018-11-11T16:47:06.501Z,18.73
2018-11-11T16:49:39.074Z,16.47
2018-11-11T16:52:11.915Z,17.07
2018-11-11T16:54:44.348Z,16.90
2018-11-11T16:57:17.009Z,15.63
2018-11-11T16:59:49.655Z,16.50
2018-11-11T17:02:22.162Z,16.33
2018-11-11T17:04:54.677Z,16.33
2018-11-11T17:07:27.233Z,19.70
2018-11-11T17:09:59.804Z,20.57
2018-11-11T17:12:32.413Z,18.70
2018-11-11T17:15:06.682Z,16.57
2018-11-11T17:17:39.149Z,15.37
2018-11-11T17:20:14.334Z,16.73
2018-11-11T17:22:47.779Z,15.43
2018-11-11T17:25:21.419Z,16.77
2018-11-11T17:27:54.108Z,15.77
2018-11-11T17:30:29.037Z,16.20
2018-11-11T17:33:01.981Z,16.20
2018-11-11T17:35:34.908Z,15.77
2018-11-11T17:38:07.563Z,17.20
2018-11-11T17:40:40.233Z,15.07
2018-11-11T17:43:12.850Z,15.63
2018-11-11T17:45:45.421Z,14.67
2018-11-11T17:48:18.053Z,13.63
2018-11-11T17:50:50.680Z,15.00
2018-11-11T17:53:23.384Z,13.97
2018-11-11T17:55:57.428Z,14.67
2018-11-11T17:58:30.216Z,13.73
2018-11-11T18:01:02.892Z,14.17
2018-11-11T18:03:35.374Z,13.33
2018-11-11T18:06:07.873Z,13.50
2018-11-11T18:08:40.416Z,15.27
2018-11-11T18:11:12.912Z,14.17
2018-11-11T18:13:45.426Z,14.60
2018-11-11T18:16:17.970Z,14.20
2018-11-11T18:18:50.659Z,15.57
2018-11-11T18:21:23.157Z,16.20
2018-11-11T18:23:55.778Z,16.60
2018-11-11T18:26:28.319Z,14.53
2018-11-11T18:29:01.030Z,13.23
2018-11-11T18:31:33.765Z,13.13
2018-11-11T18:34:06.355Z,15.00
2018-11-11T18:36:39.007Z,14.73
2018-11-11T18:39:12.668Z,15.50
2018-11-11T18:41:45.283Z,14.93
2018-11-11T18:44:18.143Z,14.00
2018-11-11T18:46:50.902Z,14.27
2018-11-11T18:49:23.471Z,14.10
2018-11-11T18:51:55.994Z,14.40
2018-11-11T18:54:28.484Z,14.40
2018-11-11T18:57:01.076Z,14.57
2018-11-11T18:59:33.462Z,13.67
2018-11-11T19:02:06.003Z,13.70
2018-11-11T19:04:38.479Z,13.27
2018-11-11T19:07:11.029Z,13.20
2018-11-11T19:09:43.550Z,12.73
2018-11-11T19:12:16.036Z,12.80
2018-11-11T19:14:48.483Z,12.93
2018-11-11T19:17:21.051Z,12.13
2018-11-11T19:19:53.585Z,13.93
2018-11-11T19:22:26.217Z,13.87
2018-11-11T19:24:58.735Z,13.63
2018-11-11T19:27:32.363Z,14.43
2018-11-11T19:30:06.399Z,13.20
2018-11-11T19:32:39.988Z,11.17
2018-11-11T19:35:13.367Z,12.10
2018-11-11T19:37:47.918Z,11.30
2018-11-11T19:40:21.741Z,11.23
2018-11-11T19:42:55.617Z,11.70
2018-11-11T19:45:29.258Z,12.30
2018-11-11T19:48:02.005Z,12.90
2018-11-11T19:50:34.559Z,11.97
2018-11-11T19:53:07.198Z,13.03
2018-11-11T19:55:39.780Z,11.57
2018-11-11T19:58:12.391Z,12.47
2018-11-11T20:00:45.004Z,12.30
2018-11-11T20:03:17.745Z,10.93
2018-11-11T20:05:50.505Z,10.47
2018-11-11T20:08:23.480Z,10.33
2018-11-11T20:10:56.052Z,10.10
2018-11-11T20:13:28.561Z,11.33
2018-11-11T20:16:01.239Z,11.30
2018-11-11T20:18:33.954Z,10.67
2018-11-11T20:21:06.660Z,11.93
2018-11-11T20:23:39.493Z,10.07
2018-11-11T20:26:12.067Z,10.73
2018-11-11T20:28:44.692Z,10.57
2018-11-11T20:31:17.671Z,9.33
2018-11-11T20:33:50.641Z,10.30
2018-11-11T20:36:23.241Z,10.17
2018-11-11T20:38:55.939Z,10.87
2018-11-11T20:41:28.514Z,11.27
2018-11-11T20:44:01.123Z,10.33
2018-11-11T20:46:34.180Z,11.83
2018-11-11T20:49:07.430Z,10.80
2018-11-11T20:51:40.012Z,13.07
2018-11-11T20:54:12.506Z,13.00
2018-11-11T20:56:45.404Z,11.83
2018-11-11T20:59:18.135Z,11.47
2018-11-11T21:01:51.237Z,10.87
2018-11-11T21:04:24.057Z,10.23
2018-11-11T21:06:56.720Z,10.20
2018-11-11T21:09:29.360Z,10.30
2018-11-11T21:12:01.940Z,8.87
2018-11-11T21:14:34.481Z,9.87
2018-11-11T21:17:07.113Z,9.80
2018-11-11T21:19:39.811Z,9.80
2018-11-11T21:22:14.334Z,9.23
2018-11-11T21:24:47.188Z,9.27
2018-11-11T21:27:19.622Z,10.17
2018-11-11T21:29:52.114Z,9.30
2018-11-11T21:32:24.760Z,11.00
2018-11-11T21:34:57.332Z,10.10
2018-11-11T21:37:29.865Z,10.47
2018-11-11T21:40:02.541Z,10.70
2018-11-11T21:42:35.059Z,11.17
2018-11-11T21:45:09.364Z,11.37
2018-11-11T21:47:42.586Z,11.20
2018-11-11T21:50:20.351Z,10.10
2018-11-11T21:53:02.791Z,10.57
2018-11-11T21:55:35.378Z,11.40
2018-11-11T21:58:08.292Z,11.97
2018-11-11T22:00:40.950Z,10.77
2018-11-11T22:03:13.699Z,12.13
2018-11-11T22:05:46.158Z,11.50
2018-11-11T22:08:18.698Z,11.53
2018-11-11T22:10:51.454Z,12.73
2018-11-11T22:13:24.827Z,12.60
2018-11-11T22:15:57.476Z,11.90
2018-11-11T22:18:30.305Z,12.17
2018-11-11T22:21:03.129Z,13.30
2018-11-11T22:23:35.617Z,12.47
2018-11-11T22:26:08.162Z,12.53
2018-11-11T22:28:40.694Z,11.63
2018-11-11T22:31:13.227Z,12.13
2018-11-11T22:33:45.949Z,12.60
2018-11-11T22:36:18.486Z,11.97
2018-11-11T22:38:51.010Z,11.70
2018-11-11T22:41:23.632Z,12.03
2018-11-11T22:43:56.423Z,11.60
2018-11-11T22:46:29.215Z,11.80
2018-11-11T22:49:01.687Z,11.47
2018-11-11T22:51:34.257Z,12.03
2018-11-11T22:54:06.921Z,11.97
2018-11-11T22:56:39.499Z,10.97
2018-11-11T22:59:12.044Z,11.43
2018-11-11T23:01:44.752Z,11.37
2018-11-11T23:04:17.349Z,11.93
2018-11-11T23:06:50.923Z,11.73
2018-11-11T23:09:23.576Z,11.40
2018-11-11T23:11:56.051Z,11.27
2018-11-11T23:14:28.528Z,13.53
2018-11-11T23:17:01.514Z,12.77
2018-11-11T23:19:34.105Z,12.03
2018-11-11T23:22:06.898Z,11.80
2018-11-11T23:24:39.600Z,11.43
2018-11-11T23:27:12.190Z,12.10
2018-11-11T23:29:44.662Z,12.50
2018-11-11T23:32:17.433Z,15.10
2018-11-11T23:34:50.210Z,12.50
2018-11-11T23:37:22.886Z,12.73
2018-11-11T23:39:55.375Z,12.63
2018-11-11T23:42:27.857Z,12.40
2018-11-11T23:45:00.336Z,11.77
2018-11-11T23:47:33.022Z,12.03
2018-11-11T23:50:08.151Z,12.23
2018-11-11T23:52:41.092Z,11.43
2018-11-11T23:55:14.740Z,11.70
2018-11-11T23:57:47.419Z,11.83
